Time,TemperatureF,DewpointF,PressureIn,WindDirection,WindDirectionDegrees,WindSpeedMPH,WindSpeedGustMPH,Humidity,HourlyPrecipIn,Conditions,Clouds,dailyrainin,SoftwareType,DateUTC
2013-05-29 00:01:00,43.0,38.0,29.78,SSW,205,14.0,21.0,83,0.00,,,0.27,,2013-05-29 06:01:00,
2013-05-29 00:11:00,43.0,38.0,29.78,SSW,205,14.0,21.0,83,0.00,,,0.27,,2013-05-29 06:11:00,
2013-05-29 00:21:00,43.0,38.0,29.78,SW,226,12.0,20.0,84,0.00,,,0.27,,2013-05-29 06:21:00,
2013-05-29 00:31:00,43.0,39.0,29.78,WSW,258,16.0,23.0,85,0.00,,,0.27,,2013-05-29 06:31:00,
2013-05-29 00:41:00,43.0,39.0,29.78,WSW,258,16.0,23.0,85,0.00,,,0.27,,2013-05-29 06:41:00,
2013-05-29 00:52:00,43.0,39.0,29.78,SW,234,14.0,21.0,86,0.00,,,0.27,,2013-05-29 06:52:00,
2013-05-29 01:01:00,42.0,38.0,29.78,SW,224,11.0,18.0,87,0.00,,,0.27,,2013-05-29 07:01:00,
2013-05-29 01:11:00,42.0,38.0,29.78,SW,224,11.0,18.0,87,0.00,,,0.27,,2013-05-29 07:11:00,
2013-05-29 01:21:00,42.0,39.0,29.78,West,261,11.0,16.0,90,0.00,,,0.27,,2013-05-29 07:21:00,
2013-05-29 01:34:00,42.0,40.0,29.78,SW,234,13.0,20.0,91,0.01,,,0.28,,2013-05-29 07:34:00,
2013-05-29 01:42:00,42.0,40.0,29.78,SW,234,13.0,20.0,91,0.01,,,0.28,,2013-05-29 07:42:00,
2013-05-29 01:52:00,42.0,40.0,29.78,WSW,239,11.0,19.0,92,0.01,,,0.28,,2013-05-29 07:52:00,
2013-05-29 02:02:00,42.0,40.0,29.77,WSW,244,10.0,15.0,92,0.01,,,0.28,,2013-05-29 08:02:00,
2013-05-29 02:11:00,42.0,40.0,29.77,WSW,244,10.0,15.0,92,0.01,,,0.28,,2013-05-29 08:11:00,
2013-05-29 02:21:00,42.0,40.0,29.76,West,259,8.0,16.0,91,0.00,,,0.28,,2013-05-29 08:21:00,
2013-05-29 02:31:00,42.0,40.0,29.76,WSW,237,9.0,15.0,91,0.00,,,0.28,,2013-05-29 08:31:00,
2013-05-29 02:41:00,42.0,40.0,29.76,WSW,237,9.0,15.0,91,0.00,,,0.28,,2013-05-29 08:41:00,
2013-05-29 02:52:00,42.0,39.0,29.75,WSW,245,11.0,16.0,90,0.00,,,0.28,,2013-05-29 08:52:00,
2013-05-29 03:01:00,42.0,39.0,29.75,WSW,248,12.0,18.0,89,0.00,,,0.28,,2013-05-29 09:01:00,
2013-05-29 03:11:00,42.0,39.0,29.75,WSW,248,12.0,18.0,89,0.00,,,0.28,,2013-05-29 09:11:00,
2013-05-29 03:21:00,42.0,39.0,29.75,SW,220,11.0,15.0,88,0.00,,,0.28,,2013-05-29 09:21:00,
2013-05-29 03:32:00,42.0,38.0,29.75,WSW,238,11.0,16.0,87,0.00,,,0.28,,2013-05-29 09:32:00,
2013-05-29 03:42:00,42.0,38.0,29.75,WSW,238,11.0,16.0,87,0.00,,,0.28,,2013-05-29 09:42:00,
2013-05-29 03:52:00,42.0,38.0,29.75,SW,229,9.0,16.0,86,0.00,,,0.28,,2013-05-29 09:52:00,
2013-05-29 04:02:00,42.0,38.0,29.76,WSW,238,6.0,13.0,85,0.00,,,0.28,,2013-05-29 10:02:00,
2013-05-29 04:12:00,42.0,38.0,29.76,WSW,238,6.0,13.0,85,0.00,,,0.28,,2013-05-29 10:12:00,
2013-05-29 04:22:00,42.0,38.0,29.75,WSW,244,7.0,13.0,85,0.00,,,0.28,,2013-05-29 10:22:00,
2013-05-29 04:32:00,42.0,37.0,29.75,SW,229,11.0,15.0,83,0.00,,,0.28,,2013-05-29 10:32:00,
2013-05-29 04:42:00,42.0,37.0,29.75,SW,229,11.0,15.0,83,0.00,,,0.28,,2013-05-29 10:42:00,
2013-05-29 04:53:00,42.0,37.0,29.75,SW,236,11.0,16.0,83,0.00,,,0.28,,2013-05-29 10:53:00,
2013-05-29 05:02:00,41.0,37.0,29.75,WSW,238,10.0,14.0,85,0.00,,,0.28,,2013-05-29 11:02:00,
2013-05-29 05:11:00,41.0,37.0,29.75,WSW,238,10.0,14.0,85,0.00,,,0.28,,2013-05-29 11:11:00,
2013-05-29 05:21:00,42.0,38.0,29.75,SW,226,9.0,18.0,84,0.00,,,0.28,,2013-05-29 11:21:00,
2013-05-29 05:32:00,41.0,37.0,29.75,SW,228,11.0,16.0,84,0.00,,,0.28,,2013-05-29 11:32:00,
2013-05-29 05:41:00,41.0,37.0,29.75,SW,228,11.0,16.0,84,0.00,,,0.28,,2013-05-29 11:41:00,
2013-05-29 05:52:00,41.0,37.0,29.74,WSW,238,9.0,17.0,85,0.00,,,0.28,,2013-05-29 11:52:00,
2013-05-29 06:01:00,41.0,37.0,29.74,WSW,241,11.0,17.0,86,0.00,,,0.28,,2013-05-29 12:01:00,
2013-05-29 06:11:00,41.0,37.0,29.74,WSW,241,11.0,17.0,86,0.00,,,0.28,,2013-05-29 12:11:00,
2013-05-29 06:21:00,42.0,38.0,29.74,SSW,213,10.0,15.0,84,0.00,,,0.28,,2013-05-29 12:21:00,
2013-05-29 06:31:00,42.0,37.0,29.74,WSW,251,15.0,20.0,82,0.00,,,0.28,,2013-05-29 12:31:00,
2013-05-29 06:41:00,42.0,37.0,29.74,WSW,251,15.0,20.0,82,0.00,,,0.28,,2013-05-29 12:41:00,
2013-05-29 06:52:00,41.0,36.0,29.74,WSW,246,10.0,19.0,83,0.00,,,0.28,,2013-05-29 12:52:00,
2013-05-29 07:01:00,41.0,36.0,29.74,WSW,246,9.0,14.0,83,0.00,,,0.28,,2013-05-29 13:01:00,
2013-05-29 07:11:00,41.0,36.0,29.74,WSW,246,9.0,14.0,83,0.00,,,0.28,,2013-05-29 13:11:00,
2013-05-29 07:21:00,42.0,37.0,29.74,SW,232,6.0,11.0,82,0.00,,,0.28,,2013-05-29 13:21:00,
2013-05-29 07:31:00,42.0,36.0,29.75,SW,226,9.0,15.0,80,0.00,,,0.28,,2013-05-29 13:31:00,
2013-05-29 07:42:00,42.0,36.0,29.75,SW,226,9.0,15.0,80,0.00,,,0.28,,2013-05-29 13:42:00,
2013-05-29 07:53:00,42.0,36.0,29.75,SW,227,7.0,13.0,80,0.00,,,0.28,,2013-05-29 13:53:00,
2013-05-29 08:01:00,43.0,37.0,29.75,SW,227,8.0,10.0,79,0.00,,,0.28,,2013-05-29 14:01:00,
2013-05-29 08:11:00,43.0,37.0,29.75,SW,227,8.0,10.0,79,0.00,,,0.28,,2013-05-29 14:11:00,
2013-05-29 08:21:00,43.0,37.0,29.74,SSW,205,8.0,12.0,78,0.00,,,0.28,,2013-05-29 14:21:00,
2013-05-29 08:31:00,43.0,37.0,29.74,SSW,210,6.0,10.0,78,0.00,,,0.28,,2013-05-29 14:31:00,
2013-05-29 08:41:00,43.0,37.0,29.74,SSW,210,6.0,10.0,78,0.00,,,0.28,,2013-05-29 14:41:00,
2013-05-29 08:52:00,45.0,38.0,29.74,SW,225,7.0,11.0,77,0.00,,,0.28,,2013-05-29 14:52:00,
2013-05-29 09:01:00,45.0,37.0,29.74,SSW,204,5.0,10.0,74,0.00,,,0.28,,2013-05-29 15:01:00,
2013-05-29 09:11:00,46.0,39.0,29.75,SSE,165,6.0,11.0,75,0.00,,,0.28,,2013-05-29 15:11:00,
2013-05-29 09:21:00,46.0,39.0,29.75,SSE,165,6.0,11.0,75,0.00,,,0.28,,2013-05-29 15:21:00,
2013-05-29 09:32:00,46.0,39.0,29.75,SSW,211,5.0,8.0,76,0.00,,,0.28,,2013-05-29 15:32:00,
2013-05-29 09:42:00,46.0,39.0,29.75,SSW,211,5.0,8.0,76,0.00,,,0.28,,2013-05-29 15:42:00,
2013-05-29 09:53:00,46.0,38.0,29.75,South,191,4.0,8.0,73,0.00,,,0.28,,2013-05-29 15:53:00,
2013-05-29 10:03:00,46.0,38.0,29.75,SSW,192,5.0,8.0,73,0.00,,,0.28,,2013-05-29 16:03:00,
2013-05-29 10:12:00,46.0,38.0,29.75,SSW,192,5.0,8.0,73,0.00,,,0.28,,2013-05-29 16:12:00,
2013-05-29 10:22:00,46.0,37.0,29.75,WSW,243,7.0,14.0,70,0.00,,,0.28,,2013-05-29 16:22:00,
2013-05-29 10:32:00,47.0,37.0,29.74,WSW,248,6.0,11.0,67,0.00,,,0.28,,2013-05-29 16:32:00,
2013-05-29 10:42:00,47.0,37.0,29.74,WSW,248,6.0,11.0,67,0.00,,,0.28,,2013-05-29 16:42:00,
2013-05-29 10:52:00,49.0,38.0,29.74,SW,224,6.0,13.0,66,0.00,,,0.28,,2013-05-29 16:52:00,
2013-05-29 11:02:00,48.0,36.0,29.74,SSW,206,9.0,15.0,64,0.00,,,0.28,,2013-05-29 17:02:00,
2013-05-29 11:11:00,48.0,36.0,29.74,SSW,206,9.0,15.0,64,0.00,,,0.28,,2013-05-29 17:11:00,
2013-05-29 11:22:00,48.0,35.0,29.74,SW,233,9.0,16.0,61,0.00,,,0.28,,2013-05-29 17:22:00,
2013-05-29 11:32:00,49.0,35.0,29.74,SW,225,9.0,16.0,58,0.00,,,0.28,,2013-05-29 17:32:00,
2013-05-29 11:42:00,49.0,35.0,29.74,SW,225,9.0,16.0,58,0.00,,,0.28,,2013-05-29 17:42:00,
2013-05-29 11:52:00,50.0,36.0,29.74,SW,229,11.0,17.0,58,0.00,,,0.28,,2013-05-29 17:52:00,
2013-05-29 12:01:00,50.0,36.0,29.74,West,261,8.0,15.0,58,0.00,,,0.28,,2013-05-29 18:01:00,
2013-05-29 12:13:00,50.0,35.0,29.74,WSW,243,10.0,17.0,56,0.00,,,0.28,,2013-05-29 18:13:00,
2013-05-29 12:21:00,50.0,35.0,29.74,WSW,243,10.0,17.0,56,0.00,,,0.28,,2013-05-29 18:21:00,
2013-05-29 12:32:00,52.0,34.0,29.74,SW,225,8.0,17.0,51,0.00,,,0.26,,2013-05-29 18:32:00,
2013-05-29 12:41:00,52.0,34.0,29.74,SW,225,8.0,17.0,51,0.00,,,0.26,,2013-05-29 18:41:00,
2013-05-29 12:52:00,51.0,34.0,29.74,WSW,241,12.0,18.0,51,0.00,,,0.26,,2013-05-29 18:52:00,
2013-05-29 13:01:00,51.0,33.0,29.74,WSW,252,11.0,19.0,49,0.00,,,0.26,,2013-05-29 19:01:00,
2013-05-29 13:11:00,52.0,30.0,29.74,WSW,246,17.0,25.0,42,0.00,,,0.26,,2013-05-29 19:11:00,
2013-05-29 13:21:00,52.0,30.0,29.74,WSW,246,17.0,25.0,42,0.00,,,0.26,,2013-05-29 19:21:00,
2013-05-29 13:32:00,52.0,30.0,29.74,WSW,246,17.0,25.0,42,0.00,,,0.26,,2013-05-29 19:32:00,
2013-05-29 13:44:00,52.0,26.0,29.74,WSW,244,17.0,22.0,36,0.00,,,0.24,,2013-05-29 19:44:00,
2013-05-29 14:02:00,53.0,32.0,29.73,WSW,255,11.0,22.0,44,0.00,,,0.24,,2013-05-29 20:02:00,
2013-05-29 14:11:00,53.0,32.0,29.73,WSW,255,11.0,22.0,44,0.00,,,0.24,,2013-05-29 20:11:00,
2013-05-29 14:22:00,55.0,34.0,29.73,WSW,248,12.0,21.0,45,0.00,,,0.24,,2013-05-29 20:22:00,
2013-05-29 14:32:00,53.0,32.0,29.73,WSW,238,12.0,22.0,44,0.00,,,0.21,,2013-05-29 20:32:00,
2013-05-29 14:41:00,53.0,32.0,29.73,WSW,238,12.0,22.0,44,0.00,,,0.21,,2013-05-29 20:41:00,
2013-05-29 14:52:00,51.0,37.0,29.72,SW,231,22.0,30.0,59,0.00,,,0.21,,2013-05-29 20:52:00,
2013-05-29 15:02:00,51.0,38.0,29.73,West,267,17.0,26.0,61,0.00,,,0.21,,2013-05-29 21:02:00,
2013-05-29 15:12:00,51.0,38.0,29.73,West,267,17.0,26.0,61,0.00,,,0.21,,2013-05-29 21:12:00,
2013-05-29 15:22:00,51.0,37.0,29.73,South,189,16.0,28.0,59,0.00,,,0.21,,2013-05-29 21:22:00,
2013-05-29 15:33:00,51.0,37.0,29.73,West,271,13.0,24.0,58,0.00,,,0.21,,2013-05-29 21:33:00,
2013-05-29 15:43:00,51.0,37.0,29.73,West,271,13.0,24.0,58,0.00,,,0.21,,2013-05-29 21:43:00,
2013-05-29 15:53:00,51.0,35.0,29.73,WSW,241,14.0,19.0,54,0.00,,,0.21,,2013-05-29 21:53:00,
2013-05-29 16:03:00,50.0,33.0,29.74,SW,233,14.0,22.0,52,0.00,,,0.21,,2013-05-29 22:03:00,
2013-05-29 16:12:00,50.0,33.0,29.74,SW,233,14.0,22.0,52,0.00,,,0.21,,2013-05-29 22:12:00,
2013-05-29 16:22:00,51.0,34.0,29.74,SW,229,15.0,20.0,52,0.00,,,0.21,,2013-05-29 22:22:00,
2013-05-29 16:33:00,52.0,35.0,29.74,SW,236,13.0,19.0,52,0.00,,,0.21,,2013-05-29 22:33:00,
2013-05-29 16:42:00,54.0,37.0,29.74,WSW,237,13.0,22.0,52,0.00,,,0.21,,2013-05-29 22:42:00,
2013-05-29 16:53:00,54.0,37.0,29.74,WSW,237,13.0,22.0,52,0.00,,,0.21,,2013-05-29 22:53:00,
2013-05-29 17:02:00,53.0,35.0,29.73,SW,215,16.0,22.0,51,0.00,,,0.21,,2013-05-29 23:02:00,
2013-05-29 17:12:00,53.0,35.0,29.73,SW,215,16.0,22.0,51,0.00,,,0.21,,2013-05-29 23:12:00,
2013-05-29 17:21:00,52.0,37.0,29.73,West,271,13.0,23.0,56,0.00,,,0.21,,2013-05-29 23:21:00,
2013-05-29 17:33:00,52.0,36.0,29.74,WSW,254,14.0,24.0,54,0.00,,,0.20,,2013-05-29 23:33:00,
2013-05-29 17:42:00,51.0,38.0,29.74,West,279,14.0,21.0,61,0.00,,,0.20,,2013-05-29 23:42:00,
2013-05-29 17:53:00,51.0,38.0,29.74,West,279,14.0,21.0,61,0.00,,,0.20,,2013-05-29 23:53:00,
2013-05-29 18:01:00,52.0,37.0,29.73,SW,229,16.0,24.0,56,0.00,,,0.20,,2013-05-30 00:01:00,
2013-05-29 18:11:00,52.0,37.0,29.73,SW,229,16.0,24.0,56,0.00,,,0.20,,2013-05-30 00:11:00,
2013-05-29 18:21:00,52.0,39.0,29.73,SW,219,16.0,23.0,61,0.00,,,0.20,,2013-05-30 00:21:00,
2013-05-29 18:31:00,51.0,37.0,29.73,SW,234,14.0,24.0,59,0.00,,,0.14,,2013-05-30 00:31:00,
2013-05-29 18:41:00,51.0,37.0,29.73,SW,234,14.0,24.0,59,0.00,,,0.14,,2013-05-30 00:41:00,
2013-05-29 18:52:00,50.0,38.0,29.73,SW,234,19.0,25.0,64,0.00,,,0.14,,2013-05-30 00:52:00,
2013-05-29 19:01:00,51.0,39.0,29.73,WSW,249,13.0,20.0,64,0.00,,,0.14,,2013-05-30 01:01:00,
2013-05-29 19:11:00,51.0,39.0,29.73,WSW,249,13.0,20.0,64,0.00,,,0.14,,2013-05-30 01:11:00,
2013-05-29 19:21:00,51.0,38.0,29.74,SW,230,19.0,29.0,61,0.00,,,0.14,,2013-05-30 01:21:00,
2013-05-29 19:31:00,52.0,38.0,29.74,WSW,253,18.0,26.0,59,0.00,,,0.10,,2013-05-30 01:31:00,
2013-05-29 19:41:00,52.0,38.0,29.74,WSW,253,18.0,26.0,59,0.00,,,0.10,,2013-05-30 01:41:00,
2013-05-29 19:52:00,50.0,37.0,29.74,WSW,240,18.0,25.0,61,0.00,,,0.10,,2013-05-30 01:52:00,
2013-05-29 20:01:00,50.0,36.0,29.75,WSW,242,13.0,30.0,59,0.00,,,0.10,,2013-05-30 02:01:00,
2013-05-29 20:11:00,50.0,36.0,29.75,WSW,242,13.0,30.0,59,0.00,,,0.10,,2013-05-30 02:11:00,
2013-05-29 20:21:00,50.0,35.0,29.74,SW,230,17.0,29.0,57,0.00,,,0.10,,2013-05-30 02:21:00,
2013-05-29 20:31:00,49.0,32.0,29.75,WSW,244,20.0,26.0,52,0.00,,,0.07,,2013-05-30 02:31:00,
2013-05-29 20:42:00,49.0,32.0,29.75,WSW,244,20.0,26.0,52,0.00,,,0.07,,2013-05-30 02:42:00,
2013-05-29 20:52:00,49.0,32.0,29.75,WSW,244,20.0,26.0,52,0.00,,,0.07,,2013-05-30 02:52:00,
2013-05-29 21:01:00,48.0,32.0,29.75,SW,215,17.0,26.0,53,0.00,,,0.07,,2013-05-30 03:01:00,
2013-05-29 21:11:00,47.0,32.0,29.76,SW,225,12.0,21.0,55,0.00,,,0.07,,2013-05-30 03:11:00,
2013-05-29 21:21:00,47.0,32.0,29.76,SW,225,12.0,21.0,55,0.00,,,0.07,,2013-05-30 03:21:00,
2013-05-29 21:32:00,46.0,32.0,29.76,SW,229,10.0,17.0,58,0.00,,,0.07,,2013-05-30 03:32:00,
2013-05-29 21:43:00,46.0,32.0,29.76,SW,229,10.0,17.0,58,0.00,,,0.07,,2013-05-30 03:43:00,
2013-05-29 21:53:00,46.0,32.0,29.76,SW,225,10.0,18.0,58,0.00,,,0.07,,2013-05-30 03:53:00,
2013-05-29 22:02:00,46.0,33.0,29.78,SSW,210,8.0,16.0,61,0.00,,,0.07,,2013-05-30 04:02:00,
2013-05-29 22:12:00,46.0,33.0,29.78,SSW,210,8.0,16.0,61,0.00,,,0.07,,2013-05-30 04:12:00,
2013-05-29 22:22:00,45.0,32.0,29.78,SSW,213,9.0,14.0,61,0.00,,,0.07,,2013-05-30 04:22:00,
2013-05-29 22:32:00,45.0,32.0,29.78,SW,227,11.0,14.0,61,0.00,,,0.02,,2013-05-30 04:32:00,
2013-05-29 22:42:00,45.0,32.0,29.78,SW,227,11.0,14.0,61,0.00,,,0.02,,2013-05-30 04:42:00,
2013-05-29 22:52:00,46.0,32.0,29.78,SW,230,14.0,20.0,59,0.00,,,0.02,,2013-05-30 04:52:00,
2013-05-29 23:02:00,46.0,32.0,29.78,SSW,194,14.0,25.0,58,0.00,,,0.02,,2013-05-30 05:02:00,
2013-05-29 23:12:00,46.0,32.0,29.78,SSW,194,14.0,25.0,58,0.00,,,0.02,,2013-05-30 05:12:00,
2013-05-29 23:21:00,46.0,32.0,29.78,WSW,244,16.0,22.0,58,0.00,,,0.02,,2013-05-30 05:21:00,
2013-05-29 23:32:00,46.0,32.0,29.78,SW,223,17.0,24.0,59,0.00,,,0.01,,2013-05-30 05:32:00,
2013-05-29 23:42:00,46.0,32.0,29.78,SW,223,17.0,24.0,59,0.00,,,0.01,,2013-05-30 05:42:00,
2013-05-29 23:52:00,46.0,32.0,29.77,SW,229,18.0,25.0,59,0.00,,,0.01,,2013-05-30 05:52:00,